sensor_id;sensor_type;location;lat;lon;timestamp;P1;durP1;ratioP1;P2;durP2;ratioP2
56307;SDS011;42217;50.422;7.210;2023-10-31T00:01:47;1.93;;;0.80;;
56307;SDS011;42217;50.422;7.210;2023-10-31T00:04:14;0.57;;;0.53;;
56307;SDS011;42217;50.422;7.210;2023-10-31T00:06:40;0.90;;;0.90;;
56307;SDS011;42217;50.422;7.210;2023-10-31T00:09:06;2.33;;;0.77;;
56307;SDS011;42217;50.422;7.210;2023-10-31T00:11:31;2.37;;;1.47;;
56307;SDS011;42217;50.422;7.210;2023-10-31T00:13:57;1.80;;;0.70;;
56307;SDS011;42217;50.422;7.210;2023-10-31T00:16:23;1.10;;;1.00;;
56307;SDS011;42217;50.422;7.210;2023-10-31T00:18:48;0.80;;;0.80;;
56307;SDS011;42217;50.422;7.210;2023-10-31T00:21:14;0.57;;;0.57;;
56307;SDS011;42217;50.422;7.210;2023-10-31T00:23:44;2.83;;;0.40;;
56307;SDS011;42217;50.422;7.210;2023-10-31T00:26:13;0.93;;;0.93;;
56307;SDS011;42217;50.422;7.210;2023-10-31T00:28:39;2.03;;;1.10;;
56307;SDS011;42217;50.422;7.210;2023-10-31T00:31:05;0.57;;;0.50;;
56307;SDS011;42217;50.422;7.210;2023-10-31T00:33:33;1.07;;;0.67;;
56307;SDS011;42217;50.422;7.210;2023-10-31T00:35:59;0.80;;;0.73;;
56307;SDS011;42217;50.422;7.210;2023-10-31T00:38:25;0.70;;;0.50;;
56307;SDS011;42217;50.422;7.210;2023-10-31T00:40:50;0.50;;;0.40;;
56307;SDS011;42217;50.422;7.210;2023-10-31T00:43:16;0.70;;;0.70;;
56307;SDS011;42217;50.422;7.210;2023-10-31T00:45:42;2.07;;;0.53;;
56307;SDS011;42217;50.422;7.210;2023-10-31T00:48:07;2.40;;;0.50;;
56307;SDS011;42217;50.422;7.210;2023-10-31T00:50:33;1.90;;;0.50;;
56307;SDS011;42217;50.422;7.210;2023-10-31T00:52:59;2.73;;;0.57;;
56307;SDS011;42217;50.422;7.210;2023-10-31T00:55:24;0.63;;;0.63;;
56307;SDS011;42217;50.422;7.210;2023-10-31T00:57:50;0.70;;;0.70;;
56307;SDS011;42217;50.422;7.210;2023-10-31T01:00:16;1.83;;;0.40;;
56307;SDS011;42217;50.422;7.210;2023-10-31T01:02:42;0.50;;;0.50;;
56307;SDS011;42217;50.422;7.210;2023-10-31T01:05:07;0.73;;;0.73;;
56307;SDS011;42217;50.422;7.210;2023-10-31T01:07:34;0.53;;;0.53;;
56307;SDS011;42217;50.422;7.210;2023-10-31T01:10:00;0.50;;;0.50;;
56307;SDS011;42217;50.422;7.210;2023-10-31T01:12:26;0.30;;;0.30;;
56307;SDS011;42217;50.422;7.210;2023-10-31T01:14:53;0.10;;;0.10;;
56307;SDS011;42217;50.422;7.210;2023-10-31T01:17:19;2.20;;;0.40;;
56307;SDS011;42217;50.422;7.210;2023-10-31T01:19:45;0.37;;;0.37;;
56307;SDS011;42217;50.422;7.210;2023-10-31T01:22:11;0.37;;;0.37;;
56307;SDS011;42217;50.422;7.210;2023-10-31T01:24:37;0.30;;;0.30;;
56307;SDS011;42217;50.422;7.210;2023-10-31T01:27:03;0.40;;;0.40;;
56307;SDS011;42217;50.422;7.210;2023-10-31T01:29:29;3.90;;;0.40;;
56307;SDS011;42217;50.422;7.210;2023-10-31T01:31:54;0.83;;;0.30;;
56307;SDS011;42217;50.422;7.210;2023-10-31T01:34:20;0.60;;;0.40;;
56307;SDS011;42217;50.422;7.210;2023-10-31T01:36:46;1.40;;;0.27;;
56307;SDS011;42217;50.422;7.210;2023-10-31T01:39:12;0.30;;;0.30;;
56307;SDS011;42217;50.422;7.210;2023-10-31T01:41:37;0.50;;;0.50;;
56307;SDS011;42217;50.422;7.210;2023-10-31T01:44:06;0.40;;;0.40;;
56307;SDS011;42217;50.422;7.210;2023-10-31T01:46:32;1.70;;;0.20;;
56307;SDS011;42217;50.422;7.210;2023-10-31T01:48:58;1.57;;;0.30;;
56307;SDS011;42217;50.422;7.210;2023-10-31T01:51:23;1.03;;;0.47;;
56307;SDS011;42217;50.422;7.210;2023-10-31T01:53:50;0.53;;;0.30;;
56307;SDS011;42217;50.422;7.210;2023-10-31T01:56:16;0.50;;;0.40;;
56307;SDS011;42217;50.422;7.210;2023-10-31T01:58:42;0.50;;;0.50;;
56307;SDS011;42217;50.422;7.210;2023-10-31T02:01:08;0.70;;;0.70;;
56307;SDS011;42217;50.422;7.210;2023-10-31T02:03:34;1.90;;;0.50;;
56307;SDS011;42217;50.422;7.210;2023-10-31T02:06:00;0.50;;;0.50;;
56307;SDS011;42217;50.422;7.210;2023-10-31T02:08:25;2.23;;;0.60;;
56307;SDS011;42217;50.422;7.210;2023-10-31T02:10:51;2.87;;;0.70;;
56307;SDS011;42217;50.422;7.210;2023-10-31T02:13:17;1.17;;;0.97;;
56307;SDS011;42217;50.422;7.210;2023-10-31T02:15:43;1.43;;;0.70;;
56307;SDS011;42217;50.422;7.210;2023-10-31T02:18:10;0.97;;;0.70;;
56307;SDS011;42217;50.422;7.210;2023-10-31T02:20:36;0.50;;;0.50;;
56307;SDS011;42217;50.422;7.210;2023-10-31T02:23:02;0.60;;;0.60;;
56307;SDS011;42217;50.422;7.210;2023-10-31T02:25:29;1.53;;;0.63;;
56307;SDS011;42217;50.422;7.210;2023-10-31T02:27:55;0.70;;;0.60;;
56307;SDS011;42217;50.422;7.210;2023-10-31T02:30:21;2.20;;;0.70;;
56307;SDS011;42217;50.422;7.210;2023-10-31T02:32:47;0.43;;;0.43;;
56307;SDS011;42217;50.422;7.210;2023-10-31T02:35:13;0.60;;;0.60;;
56307;SDS011;42217;50.422;7.210;2023-10-31T02:37:40;0.70;;;0.70;;
56307;SDS011;42217;50.422;7.210;2023-10-31T02:40:06;2.43;;;0.70;;
56307;SDS011;42217;50.422;7.210;2023-10-31T02:42:32;0.97;;;0.67;;
56307;SDS011;42217;50.422;7.210;2023-10-31T02:44:58;0.70;;;0.70;;
56307;SDS011;42217;50.422;7.210;2023-10-31T02:47:24;0.60;;;0.60;;
56307;SDS011;42217;50.422;7.210;2023-10-31T02:49:49;3.60;;;0.80;;
56307;SDS011;42217;50.422;7.210;2023-10-31T02:52:15;3.90;;;0.77;;
56307;SDS011;42217;50.422;7.210;2023-10-31T02:54:41;0.80;;;0.80;;
56307;SDS011;42217;50.422;7.210;2023-10-31T02:57:07;2.10;;;1.10;;
56307;SDS011;42217;50.422;7.210;2023-10-31T02:59:33;1.00;;;0.90;;
56307;SDS011;42217;50.422;7.210;2023-10-31T03:01:59;1.17;;;1.00;;
56307;SDS011;42217;50.422;7.210;2023-10-31T03:04:25;0.90;;;0.80;;
56307;SDS011;42217;50.422;7.210;2023-10-31T03:06:51;0.80;;;0.70;;
56307;SDS011;42217;50.422;7.210;2023-10-31T03:09:16;1.90;;;0.97;;
56307;SDS011;42217;50.422;7.210;2023-10-31T03:11:42;0.80;;;0.80;;
56307;SDS011;42217;50.422;7.210;2023-10-31T03:14:08;0.90;;;0.90;;
56307;SDS011;42217;50.422;7.210;2023-10-31T03:16:33;0.70;;;0.70;;
56307;SDS011;42217;50.422;7.210;2023-10-31T03:18:59;2.27;;;0.93;;
56307;SDS011;42217;50.422;7.210;2023-10-31T03:21:24;0.70;;;0.70;;
56307;SDS011;42217;50.422;7.210;2023-10-31T03:23:51;2.47;;;0.97;;
56307;SDS011;42217;50.422;7.210;2023-10-31T03:26:18;1.17;;;0.83;;
56307;SDS011;42217;50.422;7.210;2023-10-31T03:28:44;1.67;;;0.97;;
56307;SDS011;42217;50.422;7.210;2023-10-31T03:31:11;1.30;;;1.20;;
56307;SDS011;42217;50.422;7.210;2023-10-31T03:33:37;0.80;;;0.67;;
56307;SDS011;42217;50.422;7.210;2023-10-31T03:36:03;1.10;;;1.00;;
56307;SDS011;42217;50.422;7.210;2023-10-31T03:38:30;0.73;;;0.60;;
56307;SDS011;42217;50.422;7.210;2023-10-31T03:40:56;1.27;;;1.10;;
56307;SDS011;42217;50.422;7.210;2023-10-31T03:43:22;2.97;;;1.00;;
56307;SDS011;42217;50.422;7.210;2023-10-31T03:45:48;0.63;;;0.63;;
56307;SDS011;42217;50.422;7.210;2023-10-31T03:48:15;1.20;;;1.10;;
56307;SDS011;42217;50.422;7.210;2023-10-31T03:50:41;0.87;;;0.87;;
56307;SDS011;42217;50.422;7.210;2023-10-31T03:53:07;0.80;;;0.80;;
56307;SDS011;42217;50.422;7.210;2023-10-31T03:55:33;0.70;;;0.70;;
56307;SDS011;42217;50.422;7.210;2023-10-31T03:57:59;2.20;;;0.70;;
56307;SDS011;42217;50.422;7.210;2023-10-31T04:00:24;1.30;;;1.20;;
56307;SDS011;42217;50.422;7.210;2023-10-31T04:02:50;1.87;;;1.10;;
56307;SDS011;42217;50.422;7.210;2023-10-31T04:05:16;3.13;;;1.37;;
56307;SDS011;42217;50.422;7.210;2023-10-31T04:07:41;1.00;;;1.00;;
56307;SDS011;42217;50.422;7.210;2023-10-31T04:10:08;2.80;;;0.90;;
56307;SDS011;42217;50.422;7.210;2023-10-31T04:12:34;1.10;;;1.00;;
56307;SDS011;42217;50.422;7.210;2023-10-31T04:15:00;1.77;;;0.83;;
56307;SDS011;42217;50.422;7.210;2023-10-31T04:17:26;4.70;;;1.20;;
56307;SDS011;42217;50.422;7.210;2023-10-31T04:19:52;0.87;;;0.87;;
56307;SDS011;42217;50.422;7.210;2023-10-31T04:22:18;1.13;;;1.13;;
56307;SDS011;42217;50.422;7.210;2023-10-31T04:24:44;1.43;;;1.13;;
56307;SDS011;42217;50.422;7.210;2023-10-31T04:27:09;1.40;;;1.20;;
56307;SDS011;42217;50.422;7.210;2023-10-31T04:29:35;1.53;;;1.43;;
56307;SDS011;42217;50.422;7.210;2023-10-31T04:32:01;1.40;;;1.30;;
56307;SDS011;42217;50.422;7.210;2023-10-31T04:34:26;1.47;;;1.37;;
56307;SDS011;42217;50.422;7.210;2023-10-31T04:36:52;1.23;;;1.10;;
56307;SDS011;42217;50.422;7.210;2023-10-31T04:39:18;1.57;;;1.33;;
56307;SDS011;42217;50.422;7.210;2023-10-31T04:41:43;1.70;;;1.33;;
56307;SDS011;42217;50.422;7.210;2023-10-31T04:44:09;0.90;;;0.90;;
56307;SDS011;42217;50.422;7.210;2023-10-31T04:46:35;1.23;;;1.10;;
56307;SDS011;42217;50.422;7.210;2023-10-31T04:49:00;1.80;;;1.70;;
56307;SDS011;42217;50.422;7.210;2023-10-31T04:51:26;1.73;;;1.63;;
56307;SDS011;42217;50.422;7.210;2023-10-31T04:53:51;1.50;;;1.40;;
56307;SDS011;42217;50.422;7.210;2023-10-31T04:56:17;1.67;;;1.57;;
56307;SDS011;42217;50.422;7.210;2023-10-31T04:58:44;1.73;;;1.57;;
56307;SDS011;42217;50.422;7.210;2023-10-31T05:01:10;1.50;;;1.40;;
56307;SDS011;42217;50.422;7.210;2023-10-31T05:03:37;1.40;;;1.30;;
56307;SDS011;42217;50.422;7.210;2023-10-31T05:06:03;1.10;;;1.00;;
56307;SDS011;42217;50.422;7.210;2023-10-31T05:08:30;3.63;;;1.50;;
56307;SDS011;42217;50.422;7.210;2023-10-31T05:10:57;2.20;;;1.80;;
56307;SDS011;42217;50.422;7.210;2023-10-31T05:13:23;1.50;;;1.30;;
56307;SDS011;42217;50.422;7.210;2023-10-31T05:15:49;1.93;;;1.40;;
56307;SDS011;42217;50.422;7.210;2023-10-31T05:18:15;1.70;;;1.60;;
56307;SDS011;42217;50.422;7.210;2023-10-31T05:20:41;2.13;;;1.17;;
56307;SDS011;42217;50.422;7.210;2023-10-31T05:23:07;1.57;;;0.90;;
56307;SDS011;42217;50.422;7.210;2023-10-31T05:25:33;2.87;;;1.47;;
56307;SDS011;42217;50.422;7.210;2023-10-31T05:27:59;1.50;;;1.40;;
56307;SDS011;42217;50.422;7.210;2023-10-31T05:30:25;1.30;;;1.20;;
56307;SDS011;42217;50.422;7.210;2023-10-31T05:32:51;5.43;;;1.50;;
56307;SDS011;42217;50.422;7.210;2023-10-31T05:35:17;2.03;;;1.37;;
56307;SDS011;42217;50.422;7.210;2023-10-31T05:37:43;1.60;;;1.37;;
56307;SDS011;42217;50.422;7.210;2023-10-31T05:40:10;1.30;;;1.20;;
56307;SDS011;42217;50.422;7.210;2023-10-31T05:42:37;0.97;;;0.93;;
56307;SDS011;42217;50.422;7.210;2023-10-31T05:45:03;2.93;;;1.57;;
56307;SDS011;42217;50.422;7.210;2023-10-31T05:47:30;1.20;;;1.20;;
56307;SDS011;42217;50.422;7.210;2023-10-31T05:49:55;3.40;;;1.70;;
56307;SDS011;42217;50.422;7.210;2023-10-31T05:52:21;1.57;;;1.47;;
56307;SDS011;42217;50.422;7.210;2023-10-31T05:54:47;1.67;;;1.57;;
56307;SDS011;42217;50.422;7.210;2023-10-31T05:57:12;1.73;;;1.63;;
56307;SDS011;42217;50.422;7.210;2023-10-31T05:59:38;2.80;;;2.20;;
56307;SDS011;42217;50.422;7.210;2023-10-31T06:02:04;1.53;;;1.43;;
56307;SDS011;42217;50.422;7.210;2023-10-31T06:04:32;1.77;;;1.63;;
56307;SDS011;42217;50.422;7.210;2023-10-31T06:06:57;1.77;;;1.67;;
56307;SDS011;42217;50.422;7.210;2023-10-31T06:09:23;4.60;;;1.67;;
56307;SDS011;42217;50.422;7.210;2023-10-31T06:11:49;1.83;;;1.20;;
56307;SDS011;42217;50.422;7.210;2023-10-31T06:14:15;2.43;;;1.30;;
56307;SDS011;42217;50.422;7.210;2023-10-31T06:16:41;1.83;;;1.57;;
56307;SDS011;42217;50.422;7.210;2023-10-31T06:19:07;2.40;;;1.60;;
56307;SDS011;42217;50.422;7.210;2023-10-31T06:21:33;1.67;;;1.57;;
56307;SDS011;42217;50.422;7.210;2023-10-31T06:23:59;2.10;;;1.90;;
56307;SDS011;42217;50.422;7.210;2023-10-31T06:26:25;2.87;;;1.50;;
56307;SDS011;42217;50.422;7.210;2023-10-31T06:28:50;2.43;;;1.77;;
56307;SDS011;42217;50.422;7.210;2023-10-31T06:31:16;2.03;;;1.83;;
56307;SDS011;42217;50.422;7.210;2023-10-31T06:33:42;1.90;;;1.77;;
56307;SDS011;42217;50.422;7.210;2023-10-31T06:36:07;2.00;;;1.80;;
56307;SDS011;42217;50.422;7.210;2023-10-31T06:38:33;2.23;;;1.97;;
56307;SDS011;42217;50.422;7.210;2023-10-31T06:40:59;2.07;;;1.70;;
56307;SDS011;42217;50.422;7.210;2023-10-31T06:43:25;5.20;;;1.53;;
56307;SDS011;42217;50.422;7.210;2023-10-31T06:45:51;4.77;;;1.70;;
56307;SDS011;42217;50.422;7.210;2023-10-31T06:48:16;1.83;;;1.73;;
56307;SDS011;42217;50.422;7.210;2023-10-31T06:50:42;2.13;;;1.57;;
56307;SDS011;42217;50.422;7.210;2023-10-31T06:53:07;1.60;;;1.10;;
56307;SDS011;42217;50.422;7.210;2023-10-31T06:55:33;1.37;;;1.27;;
56307;SDS011;42217;50.422;7.210;2023-10-31T06:57:59;1.83;;;1.03;;
56307;SDS011;42217;50.422;7.210;2023-10-31T07:00:24;1.57;;;1.23;;
56307;SDS011;42217;50.422;7.210;2023-10-31T07:02:50;3.67;;;2.33;;
56307;SDS011;42217;50.422;7.210;2023-10-31T07:05:16;2.80;;;1.40;;
56307;SDS011;42217;50.422;7.210;2023-10-31T07:07:45;1.70;;;1.60;;
56307;SDS011;42217;50.422;7.210;2023-10-31T07:10:11;2.93;;;2.40;;
56307;SDS011;42217;50.422;7.210;2023-10-31T07:12:37;3.50;;;2.13;;
56307;SDS011;42217;50.422;7.210;2023-10-31T07:15:03;2.50;;;1.93;;
56307;SDS011;42217;50.422;7.210;2023-10-31T07:17:30;3.63;;;2.83;;
56307;SDS011;42217;50.422;7.210;2023-10-31T07:19:55;2.40;;;1.73;;
56307;SDS011;42217;50.422;7.210;2023-10-31T07:22:21;2.30;;;2.10;;
56307;SDS011;42217;50.422;7.210;2023-10-31T07:24:49;1.93;;;1.50;;
56307;SDS011;42217;50.422;7.210;2023-10-31T07:27:15;2.67;;;1.80;;
56307;SDS011;42217;50.422;7.210;2023-10-31T07:29:41;1.17;;;1.07;;
56307;SDS011;42217;50.422;7.210;2023-10-31T07:32:10;2.27;;;1.50;;
56307;SDS011;42217;50.422;7.210;2023-10-31T07:34:35;1.20;;;1.00;;
56307;SDS011;42217;50.422;7.210;2023-10-31T07:37:01;1.70;;;1.53;;
56307;SDS011;42217;50.422;7.210;2023-10-31T07:39:27;1.53;;;1.43;;
56307;SDS011;42217;50.422;7.210;2023-10-31T07:41:53;1.57;;;1.17;;
56307;SDS011;42217;50.422;7.210;2023-10-31T07:44:18;2.63;;;1.03;;
56307;SDS011;42217;50.422;7.210;2023-10-31T07:46:44;1.90;;;1.00;;
56307;SDS011;42217;50.422;7.210;2023-10-31T07:49:10;2.70;;;1.43;;
56307;SDS011;42217;50.422;7.210;2023-10-31T07:51:35;1.53;;;1.20;;
56307;SDS011;42217;50.422;7.210;2023-10-31T07:54:01;2.37;;;1.20;;
56307;SDS011;42217;50.422;7.210;2023-10-31T07:56:27;2.47;;;0.97;;
56307;SDS011;42217;50.422;7.210;2023-10-31T07:58:53;8.13;;;1.23;;
56307;SDS011;42217;50.422;7.210;2023-10-31T08:01:19;4.17;;;1.20;;
56307;SDS011;42217;50.422;7.210;2023-10-31T08:03:46;1.23;;;0.90;;
56307;SDS011;42217;50.422;7.210;2023-10-31T08:06:13;2.37;;;0.90;;
56307;SDS011;42217;50.422;7.210;2023-10-31T08:08:38;1.43;;;1.00;;
56307;SDS011;42217;50.422;7.210;2023-10-31T08:11:07;1.43;;;0.63;;
56307;SDS011;42217;50.422;7.210;2023-10-31T08:13:35;2.40;;;0.67;;
56307;SDS011;42217;50.422;7.210;2023-10-31T08:16:05;0.90;;;0.73;;
56307;SDS011;42217;50.422;7.210;2023-10-31T08:18:31;1.70;;;1.23;;
56307;SDS011;42217;50.422;7.210;2023-10-31T08:20:57;0.77;;;0.70;;
56307;SDS011;42217;50.422;7.210;2023-10-31T08:23:22;2.20;;;1.63;;
56307;SDS011;42217;50.422;7.210;2023-10-31T08:25:48;1.10;;;0.83;;
56307;SDS011;42217;50.422;7.210;2023-10-31T08:28:15;1.20;;;0.80;;
56307;SDS011;42217;50.422;7.210;2023-10-31T08:30:41;1.23;;;0.87;;
56307;SDS011;42217;50.422;7.210;2023-10-31T08:33:07;1.40;;;1.20;;
56307;SDS011;42217;50.422;7.210;2023-10-31T08:35:33;1.97;;;1.00;;
56307;SDS011;42217;50.422;7.210;2023-10-31T08:37:58;0.70;;;0.70;;
56307;SDS011;42217;50.422;7.210;2023-10-31T08:40:24;5.60;;;1.03;;
56307;SDS011;42217;50.422;7.210;2023-10-31T08:42:50;4.00;;;1.00;;
56307;SDS011;42217;50.422;7.210;2023-10-31T08:45:15;1.47;;;0.90;;
56307;SDS011;42217;50.422;7.210;2023-10-31T08:47:41;1.17;;;0.90;;
56307;SDS011;42217;50.422;7.210;2023-10-31T08:50:07;3.27;;;0.80;;
56307;SDS011;42217;50.422;7.210;2023-10-31T08:52:36;0.83;;;0.83;;
56307;SDS011;42217;50.422;7.210;2023-10-31T08:55:02;1.30;;;1.03;;
56307;SDS011;42217;50.422;7.210;2023-10-31T08:57:29;7.67;;;1.10;;
56307;SDS011;42217;50.422;7.210;2023-10-31T08:59:55;1.20;;;1.10;;
56307;SDS011;42217;50.422;7.210;2023-10-31T09:02:20;1.10;;;1.00;;
56307;SDS011;42217;50.422;7.210;2023-10-31T09:04:46;2.00;;;0.97;;
56307;SDS011;42217;50.422;7.210;2023-10-31T09:07:11;5.23;;;1.30;;
56307;SDS011;42217;50.422;7.210;2023-10-31T09:09:37;3.73;;;0.67;;
56307;SDS011;42217;50.422;7.210;2023-10-31T09:12:03;2.10;;;1.27;;
56307;SDS011;42217;50.422;7.210;2023-10-31T09:14:29;1.87;;;0.80;;
56307;SDS011;42217;50.422;7.210;2023-10-31T09:16:55;1.03;;;0.80;;
56307;SDS011;42217;50.422;7.210;2023-10-31T09:19:20;1.23;;;0.70;;
56307;SDS011;42217;50.422;7.210;2023-10-31T09:21:46;0.97;;;0.70;;
56307;SDS011;42217;50.422;7.210;2023-10-31T09:24:11;2.03;;;1.10;;
56307;SDS011;42217;50.422;7.210;2023-10-31T09:26:41;1.03;;;1.03;;
56307;SDS011;42217;50.422;7.210;2023-10-31T09:29:08;0.90;;;0.87;;
56307;SDS011;42217;50.422;7.210;2023-10-31T09:31:35;0.97;;;0.60;;
56307;SDS011;42217;50.422;7.210;2023-10-31T09:34:00;1.50;;;0.73;;
56307;SDS011;42217;50.422;7.210;2023-10-31T09:36:28;0.83;;;0.70;;
56307;SDS011;42217;50.422;7.210;2023-10-31T09:38:56;1.07;;;0.97;;
56307;SDS011;42217;50.422;7.210;2023-10-31T09:41:22;0.70;;;0.70;;
56307;SDS011;42217;50.422;7.210;2023-10-31T09:43:48;4.70;;;1.43;;
56307;SDS011;42217;50.422;7.210;2023-10-31T09:46:14;0.93;;;0.83;;
56307;SDS011;42217;50.422;7.210;2023-10-31T09:48:41;1.57;;;0.60;;
56307;SDS011;42217;50.422;7.210;2023-10-31T09:51:08;0.60;;;0.60;;
56307;SDS011;42217;50.422;7.210;2023-10-31T09:53:34;1.40;;;0.83;;
56307;SDS011;42217;50.422;7.210;2023-10-31T09:56:03;0.93;;;0.80;;
56307;SDS011;42217;50.422;7.210;2023-10-31T09:58:31;2.30;;;0.67;;
56307;SDS011;42217;50.422;7.210;2023-10-31T10:00:56;0.70;;;0.70;;
56307;SDS011;42217;50.422;7.210;2023-10-31T10:03:22;3.93;;;0.90;;
56307;SDS011;42217;50.422;7.210;2023-10-31T10:05:49;1.00;;;0.90;;
56307;SDS011;42217;50.422;7.210;2023-10-31T10:08:15;3.20;;;1.10;;
56307;SDS011;42217;50.422;7.210;2023-10-31T10:10:41;0.80;;;0.63;;
56307;SDS011;42217;50.422;7.210;2023-10-31T10:13:07;0.90;;;0.73;;
56307;SDS011;42217;50.422;7.210;2023-10-31T10:15:44;0.80;;;0.80;;
56307;SDS011;42217;50.422;7.210;2023-10-31T10:18:10;2.53;;;0.93;;
56307;SDS011;42217;50.422;7.210;2023-10-31T10:20:56;0.60;;;0.60;;
56307;SDS011;42217;50.422;7.210;2023-10-31T10:23:30;1.40;;;1.20;;
56307;SDS011;42217;50.422;7.210;2023-10-31T10:25:57;1.77;;;1.00;;
56307;SDS011;42217;50.422;7.210;2023-10-31T10:28:24;2.10;;;1.00;;
56307;SDS011;42217;50.422;7.210;2023-10-31T10:30:51;2.77;;;1.17;;
56307;SDS011;42217;50.422;7.210;2023-10-31T10:33:20;0.80;;;0.80;;
56307;SDS011;42217;50.422;7.210;2023-10-31T10:35:47;1.40;;;1.00;;
56307;SDS011;42217;50.422;7.210;2023-10-31T10:38:14;1.63;;;0.90;;
56307;SDS011;42217;50.422;7.210;2023-10-31T10:40:45;2.77;;;1.00;;
56307;SDS011;42217;50.422;7.210;2023-10-31T10:43:22;0.95;;;0.90;;
56307;SDS011;42217;50.422;7.210;2023-10-31T10:45:58;1.37;;;0.83;;
56307;SDS011;42217;50.422;7.210;2023-10-31T10:48:27;1.33;;;1.10;;
56307;SDS011;42217;50.422;7.210;2023-10-31T10:51:03;2.97;;;0.67;;
56307;SDS011;42217;50.422;7.210;2023-10-31T10:53:44;0.85;;;0.82;;
56307;SDS011;42217;50.422;7.210;2023-10-31T10:56:25;1.00;;;0.77;;
56307;SDS011;42217;50.422;7.210;2023-10-31T10:59:00;0.83;;;0.83;;
56307;SDS011;42217;50.422;7.210;2023-10-31T11:01:29;0.90;;;0.90;;
56307;SDS011;42217;50.422;7.210;2023-10-31T11:03:56;1.40;;;1.30;;
56307;SDS011;42217;50.422;7.210;2023-10-31T11:06:22;5.03;;;1.77;;
56307;SDS011;42217;50.422;7.210;2023-10-31T11:08:49;7.90;;;1.07;;
56307;SDS011;42217;50.422;7.210;2023-10-31T11:11:17;2.33;;;0.83;;
56307;SDS011;42217;50.422;7.210;2023-10-31T11:13:44;5.73;;;1.50;;
56307;SDS011;42217;50.422;7.210;2023-10-31T11:16:16;4.50;;;1.40;;
56307;SDS011;42217;50.422;7.210;2023-10-31T11:18:49;1.53;;;1.37;;
56307;SDS011;42217;50.422;7.210;2023-10-31T11:21:15;3.10;;;1.30;;
56307;SDS011;42217;50.422;7.210;2023-10-31T11:23:41;3.23;;;1.33;;
56307;SDS011;42217;50.422;7.210;2023-10-31T11:26:07;2.23;;;1.30;;
56307;SDS011;42217;50.422;7.210;2023-10-31T11:28:36;2.07;;;1.10;;
56307;SDS011;42217;50.422;7.210;2023-10-31T11:31:02;8.33;;;1.73;;
56307;SDS011;42217;50.422;7.210;2023-10-31T11:33:28;2.80;;;1.10;;
56307;SDS011;42217;50.422;7.210;2023-10-31T11:36:01;2.50;;;0.87;;
56307;SDS011;42217;50.422;7.210;2023-10-31T11:38:32;3.40;;;1.50;;
56307;SDS011;42217;50.422;7.210;2023-10-31T11:41:00;3.13;;;1.00;;
56307;SDS011;42217;50.422;7.210;2023-10-31T11:43:49;3.53;;;0.97;;
56307;SDS011;42217;50.422;7.210;2023-10-31T11:46:20;1.50;;;0.80;;
56307;SDS011;42217;50.422;7.210;2023-10-31T11:51:20;1.73;;;0.80;;
56307;SDS011;42217;50.422;7.210;2023-10-31T11:53:48;4.17;;;1.13;;
56307;SDS011;42217;50.422;7.210;2023-10-31T11:56:17;5.53;;;1.10;;
56307;SDS011;42217;50.422;7.210;2023-10-31T11:58:43;2.40;;;0.83;;
56307;SDS011;42217;50.422;7.210;2023-10-31T12:01:09;1.57;;;1.40;;
56307;SDS011;42217;50.422;7.210;2023-10-31T12:03:36;6.97;;;2.07;;
56307;SDS011;42217;50.422;7.210;2023-10-31T12:06:02;4.13;;;1.30;;
56307;SDS011;42217;50.422;7.210;2023-10-31T12:08:29;2.80;;;1.17;;
56307;SDS011;42217;50.422;7.210;2023-10-31T12:13:35;2.30;;;1.53;;
56307;SDS011;42217;50.422;7.210;2023-10-31T12:16:02;7.13;;;1.60;;
56307;SDS011;42217;50.422;7.210;2023-10-31T12:18:28;1.20;;;1.10;;
56307;SDS011;42217;50.422;7.210;2023-10-31T12:20:54;3.47;;;1.17;;
56307;SDS011;42217;50.422;7.210;2023-10-31T12:23:20;5.97;;;1.40;;
56307;SDS011;42217;50.422;7.210;2023-10-31T12:25:50;3.73;;;1.20;;
56307;SDS011;42217;50.422;7.210;2023-10-31T12:28:20;4.25;;;1.10;;
56307;SDS011;42217;50.422;7.210;2023-10-31T12:30:47;3.17;;;1.33;;
56307;SDS011;42217;50.422;7.210;2023-10-31T12:33:14;2.88;;;1.10;;
56307;SDS011;42217;50.422;7.210;2023-10-31T12:35:40;4.55;;;1.15;;
56307;SDS011;42217;50.422;7.210;2023-10-31T12:38:08;2.85;;;0.70;;
56307;SDS011;42217;50.422;7.210;2023-10-31T12:40:37;2.58;;;0.75;;
56307;SDS011;42217;50.422;7.210;2023-10-31T12:43:03;1.90;;;0.63;;
56307;SDS011;42217;50.422;7.210;2023-10-31T12:45:29;4.28;;;0.88;;
56307;SDS011;42217;50.422;7.210;2023-10-31T12:48:01;7.27;;;1.10;;
56307;SDS011;42217;50.422;7.210;2023-10-31T12:50:29;26.40;;;1.58;;
56307;SDS011;42217;50.422;7.210;2023-10-31T12:52:59;4.70;;;1.40;;
56307;SDS011;42217;50.422;7.210;2023-10-31T12:55:28;3.63;;;1.23;;
56307;SDS011;42217;50.422;7.210;2023-10-31T12:57:55;3.23;;;1.30;;
56307;SDS011;42217;50.422;7.210;2023-10-31T13:00:31;1.77;;;1.00;;
56307;SDS011;42217;50.422;7.210;2023-10-31T13:02:59;2.40;;;1.00;;
56307;SDS011;42217;50.422;7.210;2023-10-31T13:05:34;3.33;;;1.13;;
56307;SDS011;42217;50.422;7.210;2023-10-31T13:08:01;3.95;;;0.82;;
56307;SDS011;42217;50.422;7.210;2023-10-31T13:10:29;2.73;;;1.37;;
56307;SDS011;42217;50.422;7.210;2023-10-31T13:12:57;1.23;;;0.57;;
56307;SDS011;42217;50.422;7.210;2023-10-31T13:15:23;5.95;;;1.50;;
56307;SDS011;42217;50.422;7.210;2023-10-31T13:17:49;1.50;;;0.63;;
56307;SDS011;42217;50.422;7.210;2023-10-31T13:20:17;1.63;;;0.80;;
56307;SDS011;42217;50.422;7.210;2023-10-31T13:22:44;7.07;;;1.38;;
56307;SDS011;42217;50.422;7.210;2023-10-31T13:25:10;5.00;;;1.00;;
56307;SDS011;42217;50.422;7.210;2023-10-31T13:27:38;4.57;;;1.00;;
56307;SDS011;42217;50.422;7.210;2023-10-31T13:30:07;2.47;;;0.95;;
56307;SDS011;42217;50.422;7.210;2023-10-31T13:32:33;5.30;;;1.10;;
56307;SDS011;42217;50.422;7.210;2023-10-31T13:35:00;3.55;;;1.02;;
56307;SDS011;42217;50.422;7.210;2023-10-31T13:37:25;2.60;;;1.08;;
56307;SDS011;42217;50.422;7.210;2023-10-31T13:39:51;3.00;;;1.85;;
56307;SDS011;42217;50.422;7.210;2023-10-31T13:42:17;4.10;;;1.15;;
56307;SDS011;42217;50.422;7.210;2023-10-31T13:44:43;2.10;;;0.80;;
56307;SDS011;42217;50.422;7.210;2023-10-31T13:47:09;8.40;;;1.08;;
56307;SDS011;42217;50.422;7.210;2023-10-31T13:49:35;2.38;;;1.20;;
56307;SDS011;42217;50.422;7.210;2023-10-31T13:52:02;4.20;;;1.77;;
56307;SDS011;42217;50.422;7.210;2023-10-31T13:54:29;2.85;;;1.27;;
56307;SDS011;42217;50.422;7.210;2023-10-31T13:56:54;6.43;;;1.23;;
56307;SDS011;42217;50.422;7.210;2023-10-31T13:59:20;3.83;;;1.58;;
56307;SDS011;42217;50.422;7.210;2023-10-31T14:01:49;2.13;;;1.73;;
56307;SDS011;42217;50.422;7.210;2023-10-31T14:04:15;3.60;;;1.23;;
56307;SDS011;42217;50.422;7.210;2023-10-31T14:06:41;2.33;;;1.10;;
56307;SDS011;42217;50.422;7.210;2023-10-31T14:09:08;2.13;;;1.35;;
56307;SDS011;42217;50.422;7.210;2023-10-31T14:11:34;2.40;;;0.90;;
56307;SDS011;42217;50.422;7.210;2023-10-31T14:14:01;5.43;;;1.55;;
56307;SDS011;42217;50.422;7.210;2023-10-31T14:16:41;0.52;;;0.52;;
56307;SDS011;42217;50.422;7.210;2023-10-31T14:19:11;1.30;;;0.98;;
56307;SDS011;42217;50.422;7.210;2023-10-31T14:21:38;1.77;;;0.70;;
56307;SDS011;42217;50.422;7.210;2023-10-31T14:24:04;2.22;;;0.85;;
56307;SDS011;42217;50.422;7.210;2023-10-31T14:26:33;3.08;;;2.10;;
56307;SDS011;42217;50.422;7.210;2023-10-31T14:28:59;2.72;;;0.60;;
56307;SDS011;42217;50.422;7.210;2023-10-31T14:31:25;16.77;;;1.35;;
56307;SDS011;42217;50.422;7.210;2023-10-31T14:33:51;1.65;;;0.77;;
56307;SDS011;42217;50.422;7.210;2023-10-31T14:36:17;2.28;;;1.05;;
56307;SDS011;42217;50.422;7.210;2023-10-31T14:38:42;1.13;;;0.50;;
56307;SDS011;42217;50.422;7.210;2023-10-31T14:41:08;5.57;;;0.85;;
56307;SDS011;42217;50.422;7.210;2023-10-31T14:43:34;2.65;;;0.55;;
56307;SDS011;42217;50.422;7.210;2023-10-31T14:46:01;5.95;;;0.70;;
56307;SDS011;42217;50.422;7.210;2023-10-31T14:48:27;3.28;;;1.27;;
56307;SDS011;42217;50.422;7.210;2023-10-31T14:50:53;3.30;;;1.00;;